CYMU

Umiujaq Airport

ICAO Code CYMU
IATA Code YUD
Name Umiujaq Airport
Location Umiujaq, Quebec, CA
Elevation 251 Feet / 76.5 Meters
Latitude 56.53611111
Longitude -76.51833333
METAR CYMU 072100Z 07012KT 15SM BKN060 BKN210 06/M04 A3002 RMK SC5CI1 CI TR LASTOBS/NEXT 08 1200Z SLP171
Extra information Display Charts and CFS
Display NOTAMS
Runway Length Width Surface Elevation
02 3521 ft 100 ft GRAVEL 247 ft
20 3521 ft 100 ft GRAVEL 251 ft